Time;durP1;ratioP1;P1;durP2;ratioP2;P2;SDS_P1;SDS_P2;PMS_P1;PMS_P2;Temp;Humidity;BMP_temperature;BMP_pressure;BME280_temperature;BME280_humidity;BME280_pressure;Samples;Min_cycle;Max_cycle;Signal;HPM_P1;HPM_P2
2022/12/13 00:01:52;;;;;;;20.00;11.73;;;;;;;;;;4997508;28;20435;-76
2022/12/13 00:04:19;;;;;;;23.60;13.47;;;;;;;;;;4999060;28;20438;-76
2022/12/13 00:06:46;;;;;;;23.87;14.07;;;;;;;;;;5000417;28;20447;-76
2022/12/13 00:09:14;;;;;;;26.93;15.47;;;;;;;;;;4997820;28;20501;-75
2022/12/13 00:11:40;;;;;;;24.13;14.50;;;;;;;;;;4997807;28;20840;-75
2022/12/13 00:14:06;;;;;;;23.53;12.87;;;;;;;;;;5000686;28;20429;-75
2022/12/13 00:16:32;;;;;;;20.87;11.93;;;;;;;;;;4996134;28;20703;-75
2022/12/13 00:18:59;;;;;;;21.60;12.00;;;;;;;;;;4995855;28;20522;-76
2022/12/13 00:21:27;;;;;;;18.83;11.40;;;;;;;;;;4995451;28;20445;-76
2022/12/13 00:23:53;;;;;;;23.67;12.97;;;;;;;;;;4998876;28;20972;-76
2022/12/13 00:26:20;;;;;;;20.63;12.40;;;;;;;;;;4980149;28;20438;-76
2022/12/13 00:28:50;;;;;;;47.03;20.63;;;;;;;;;;4997572;28;20927;-76
2022/12/13 00:31:20;;;;;;;31.93;14.83;;;;;;;;;;5000473;28;20470;-76
2022/12/13 00:33:46;;;;;;;30.87;15.23;;;;;;;;;;5000326;28;20987;-76
2022/12/13 00:36:12;;;;;;;24.70;13.30;;;;;;;;;;4998467;28;20506;-76
2022/12/13 00:38:38;;;;;;;23.53;13.23;;;;;;;;;;4996971;28;20589;-76
2022/12/13 00:41:11;;;;;;;23.73;13.27;;;;;;;;;;4997702;28;20876;-76
2022/12/13 00:43:37;;;;;;;21.57;12.27;;;;;;;;;;5003707;28;20438;-76
2022/12/13 00:46:03;;;;;;;25.10;14.20;;;;;;;;;;4996720;28;20465;-76
2022/12/13 00:48:29;;;;;;;21.80;12.07;;;;;;;;;;4994018;28;20544;-76
2022/12/13 00:50:56;;;;;;;23.17;13.07;;;;;;;;;;4994811;28;20466;-76
2022/12/13 00:53:23;;;;;;;22.47;12.83;;;;;;;;;;4998438;28;20461;-76
2022/12/13 00:55:49;;;;;;;26.40;14.77;;;;;;;;;;5001298;28;20510;-76
2022/12/13 00:58:15;;;;;;;29.33;15.20;;;;;;;;;;4998276;28;20434;-76
2022/12/13 01:00:42;;;;;;;24.40;13.83;;;;;;;;;;5003645;28;20458;-76
2022/12/13 01:03:19;;;;;;;27.80;15.43;;;;;;;;;;4999355;28;20473;-76
2022/12/13 01:05:48;;;;;;;24.63;14.20;;;;;;;;;;5000293;28;20576;-76
2022/12/13 01:08:15;;;;;;;28.70;14.83;;;;;;;;;;4995019;28;20438;-76
2022/12/13 01:10:42;;;;;;;24.73;14.20;;;;;;;;;;4998330;28;20470;-76
2022/12/13 01:13:08;;;;;;;26.27;14.00;;;;;;;;;;4997147;28;20474;-77
2022/12/13 01:15:34;;;;;;;23.67;13.20;;;;;;;;;;4995352;28;20453;-76
2022/12/13 01:18:01;;;;;;;25.63;14.80;;;;;;;;;;4998373;28;20673;-76
2022/12/13 01:20:27;;;;;;;30.23;15.23;;;;;;;;;;4999136;28;20992;-76
2022/12/13 01:22:53;;;;;;;24.37;13.60;;;;;;;;;;5000549;28;20496;-76
2022/12/13 01:25:19;;;;;;;26.20;13.90;;;;;;;;;;4997319;28;20442;-75
2022/12/13 01:27:45;;;;;;;25.27;13.70;;;;;;;;;;4998025;28;20855;-76
2022/12/13 01:30:11;;;;;;;21.53;12.57;;;;;;;;;;5001015;28;20504;-76
2022/12/13 01:32:38;;;;;;;23.80;13.33;;;;;;;;;;5004711;28;20469;-76
2022/12/13 01:35:04;;;;;;;21.80;12.23;;;;;;;;;;5005489;28;20426;-76
2022/12/13 01:37:30;;;;;;;22.17;13.33;;;;;;;;;;4981943;28;20473;-77
2022/12/13 01:39:56;;;;;;;29.53;15.40;;;;;;;;;;4999172;28;20549;-77
2022/12/13 01:42:22;;;;;;;28.27;15.00;;;;;;;;;;4999262;28;20521;-77
2022/12/13 01:44:54;;;;;;;25.93;15.20;;;;;;;;;;4997369;28;20438;-77
2022/12/13 01:47:36;;;;;;;24.20;13.70;;;;;;;;;;5005303;28;21105;-77
2022/12/13 01:50:05;;;;;;;28.40;14.20;;;;;;;;;;4987544;28;20464;-77
2022/12/13 01:52:33;;;;;;;23.70;13.40;;;;;;;;;;5000083;28;20461;-77
2022/12/13 01:55:00;;;;;;;27.63;15.53;;;;;;;;;;5009133;28;20444;-77
2022/12/13 01:57:27;;;;;;;29.97;15.57;;;;;;;;;;5006104;28;20525;-77
2022/12/13 01:59:53;;;;;;;31.97;14.67;;;;;;;;;;4998915;28;20561;-76
2022/12/13 02:02:20;;;;;;;25.20;13.57;;;;;;;;;;4986799;28;21110;-76
2022/12/13 02:04:52;;;;;;;26.10;13.77;;;;;;;;;;4981405;28;20430;-76
2022/12/13 02:07:21;;;;;;;24.67;13.73;;;;;;;;;;4997786;28;20572;-76
2022/12/13 02:09:47;;;;;;;32.20;14.90;;;;;;;;;;4997945;28;21000;-76
2022/12/13 02:12:14;;;;;;;28.60;15.20;;;;;;;;;;4997964;28;20541;-76
2022/12/13 02:14:40;;;;;;;36.73;16.80;;;;;;;;;;5001073;28;20439;-76
2022/12/13 02:17:26;;;;;;;27.30;14.40;;;;;;;;;;4997568;28;20604;-76
2022/12/13 02:19:58;;;;;;;27.93;14.67;;;;;;;;;;4995637;28;20465;-76
2022/12/13 02:22:32;;;;;;;28.47;14.70;;;;;;;;;;5000335;28;20479;-76
2022/12/13 02:25:16;;;;;;;29.33;15.23;;;;;;;;;;4998764;28;20457;-76
2022/12/13 02:27:45;;;;;;;28.33;14.50;;;;;;;;;;4994402;28;20522;-76
2022/12/13 02:30:15;;;;;;;26.27;14.33;;;;;;;;;;5000262;28;20453;-76
2022/12/13 02:32:41;;;;;;;24.73;14.07;;;;;;;;;;4996220;28;20888;-76
2022/12/13 02:35:13;;;;;;;22.60;12.47;;;;;;;;;;4995544;28;20783;-76
2022/12/13 02:37:46;;;;;;;25.30;13.43;;;;;;;;;;4994257;28;20620;-76
2022/12/13 02:40:27;;;;;;;23.10;11.73;;;;;;;;;;4997360;28;20449;-76
2022/12/13 02:43:00;;;;;;;22.87;11.93;;;;;;;;;;4998008;28;20452;-76
2022/12/13 02:45:47;;;;;;;21.57;12.63;;;;;;;;;;4997734;28;20438;-76
2022/12/13 02:48:14;;;;;;;22.77;13.03;;;;;;;;;;4996758;28;20430;-76
2022/12/13 02:50:41;;;;;;;25.03;13.20;;;;;;;;;;5005507;28;20565;-76
2022/12/13 02:53:09;;;;;;;24.07;13.30;;;;;;;;;;4996270;28;20473;-76
2022/12/13 02:55:37;;;;;;;23.17;13.30;;;;;;;;;;4999204;28;20430;-76
2022/12/13 02:58:03;;;;;;;24.07;13.87;;;;;;;;;;4995248;28;21187;-76
2022/12/13 03:00:36;;;;;;;23.67;12.97;;;;;;;;;;5000137;28;20489;-76
2022/12/13 03:03:21;;;;;;;24.70;13.53;;;;;;;;;;4991673;28;20442;-76
2022/12/13 03:08:53;;;;;;;21.47;12.63;;;;;;;;;;5000204;28;20466;-76
2022/12/13 03:11:21;;;;;;;24.33;13.67;;;;;;;;;;5001723;28;20489;-76
2022/12/13 03:13:52;;;;;;;27.63;14.87;;;;;;;;;;5001241;28;20447;-76
2022/12/13 03:16:24;;;;;;;22.50;13.30;;;;;;;;;;4999835;28;20794;-76
2022/12/13 03:18:52;;;;;;;22.43;12.97;;;;;;;;;;5002297;28;20453;-76
2022/12/13 03:21:21;;;;;;;24.07;12.83;;;;;;;;;;5001472;28;20989;-76
2022/12/13 03:23:47;;;;;;;22.60;12.93;;;;;;;;;;5005486;28;20759;-76
2022/12/13 03:26:15;;;;;;;26.70;14.23;;;;;;;;;;5001204;28;20999;-76
2022/12/13 03:28:41;;;;;;;23.80;13.00;;;;;;;;;;5000830;28;20819;-76
2022/12/13 03:31:08;;;;;;;23.83;13.40;;;;;;;;;;5000099;28;21083;-76
2022/12/13 03:33:34;;;;;;;21.87;12.83;;;;;;;;;;4998589;28;20521;-76
2022/12/13 03:36:00;;;;;;;23.50;12.80;;;;;;;;;;5002149;28;20533;-77
2022/12/13 03:38:26;;;;;;;26.33;14.23;;;;;;;;;;4997779;28;20453;-76
2022/12/13 03:40:54;;;;;;;27.60;14.17;;;;;;;;;;5004252;28;20466;-76
2022/12/13 03:43:21;;;;;;;30.67;16.03;;;;;;;;;;4999399;28;20535;-76
2022/12/13 03:45:47;;;;;;;34.17;16.67;;;;;;;;;;4999643;28;20852;-76
2022/12/13 03:48:14;;;;;;;31.27;15.03;;;;;;;;;;4999277;28;20860;-76
2022/12/13 03:50:40;;;;;;;31.40;15.50;;;;;;;;;;5001472;28;20516;-76
2022/12/13 03:53:08;;;;;;;27.03;13.77;;;;;;;;;;5002589;28;20474;-76
2022/12/13 03:55:34;;;;;;;26.20;14.10;;;;;;;;;;5002608;28;20822;-76
2022/12/13 03:58:00;;;;;;;24.80;13.17;;;;;;;;;;4979751;28;20451;-76
2022/12/13 04:00:27;;;;;;;24.97;14.40;;;;;;;;;;5008609;28;20472;-77
2022/12/13 04:02:53;;;;;;;27.03;14.37;;;;;;;;;;5001133;28;20430;-77
2022/12/13 04:05:20;;;;;;;23.87;13.30;;;;;;;;;;5003496;28;20499;-76
2022/12/13 04:07:46;;;;;;;23.00;13.20;;;;;;;;;;5002302;28;20450;-76
2022/12/13 04:10:12;;;;;;;22.33;12.77;;;;;;;;;;5003926;28;20454;-76
2022/12/13 04:15:23;;;;;;;22.53;12.57;;;;;;;;;;5001367;28;20429;-77
2022/12/13 04:17:49;;;;;;;23.83;12.73;;;;;;;;;;5001088;28;20449;-76
2022/12/13 04:20:16;;;;;;;21.87;12.03;;;;;;;;;;5005043;28;20450;-76
2022/12/13 04:22:42;;;;;;;23.30;13.00;;;;;;;;;;4999759;28;20465;-77
2022/12/13 04:25:08;;;;;;;23.50;13.17;;;;;;;;;;5003702;28;20438;-76
2022/12/13 04:27:36;;;;;;;23.23;12.87;;;;;;;;;;4997391;28;20437;-76
2022/12/13 04:30:04;;;;;;;22.03;12.60;;;;;;;;;;4998826;28;20824;-76
2022/12/13 04:32:30;;;;;;;25.37;13.60;;;;;;;;;;5007353;28;20556;-76
2022/12/13 04:34:56;;;;;;;21.50;11.93;;;;;;;;;;4998694;28;20437;-77
2022/12/13 04:37:23;;;;;;;24.90;13.40;;;;;;;;;;5000341;28;20498;-76
2022/12/13 04:39:49;;;;;;;23.37;13.20;;;;;;;;;;5000649;28;20466;-76
2022/12/13 04:42:15;;;;;;;22.63;13.00;;;;;;;;;;5005451;28;20950;-76
2022/12/13 04:44:41;;;;;;;25.07;14.60;;;;;;;;;;4999985;28;20435;-76
2022/12/13 04:47:08;;;;;;;25.07;14.20;;;;;;;;;;5005519;28;20848;-77
2022/12/13 04:49:34;;;;;;;25.50;13.37;;;;;;;;;;5003250;28;20454;-76
2022/12/13 04:52:01;;;;;;;24.50;12.23;;;;;;;;;;5002405;28;20466;-77
2022/12/13 04:54:27;;;;;;;26.97;15.07;;;;;;;;;;4999345;28;20433;-76
2022/12/13 04:56:53;;;;;;;26.97;14.90;;;;;;;;;;4999159;28;20570;-77
2022/12/13 04:59:20;;;;;;;28.23;14.73;;;;;;;;;;4998670;28;20538;-76
2022/12/13 05:01:46;;;;;;;26.83;14.07;;;;;;;;;;4999072;28;20442;-76
2022/12/13 05:04:12;;;;;;;26.33;14.17;;;;;;;;;;4999325;28;21234;-76
2022/12/13 05:06:38;;;;;;;26.13;15.13;;;;;;;;;;5004252;28;20837;-76
2022/12/13 05:09:04;;;;;;;24.43;13.70;;;;;;;;;;4998779;28;20809;-76
2022/12/13 05:11:31;;;;;;;26.53;14.80;;;;;;;;;;4998583;28;20457;-76
2022/12/13 05:13:57;;;;;;;28.07;14.27;;;;;;;;;;4998611;28;20545;-76
2022/12/13 05:16:23;;;;;;;29.13;15.40;;;;;;;;;;4998047;28;20434;-77
2022/12/13 05:18:49;;;;;;;28.20;15.20;;;;;;;;;;4995662;28;20500;-77
2022/12/13 05:21:15;;;;;;;27.00;15.37;;;;;;;;;;4997062;28;20856;-77
2022/12/13 05:23:42;;;;;;;27.97;14.97;;;;;;;;;;4996946;28;20845;-76
2022/12/13 05:26:08;;;;;;;25.47;14.37;;;;;;;;;;5002350;28;20807;-76
2022/12/13 05:28:34;;;;;;;30.42;17.70;;;;;;;;;;4999861;28;20428;-76
2022/12/13 05:31:09;;;;;;;26.63;15.47;;;;;;;;;;4995917;28;20202;-77
2022/12/13 05:33:36;;;;;;;28.47;15.90;;;;;;;;;;4998173;28;20488;-77
2022/12/13 05:36:02;;;;;;;26.97;14.73;;;;;;;;;;5000742;28;20450;-76
2022/12/13 05:38:29;;;;;;;26.70;15.30;;;;;;;;;;4995164;28;20450;-76
2022/12/13 05:40:55;;;;;;;30.37;16.60;;;;;;;;;;5006358;28;20493;-76
2022/12/13 05:43:22;;;;;;;29.33;16.10;;;;;;;;;;4998750;28;20500;-77
2022/12/13 05:45:49;;;;;;;28.20;17.20;;;;;;;;;;4992818;28;20536;-76
2022/12/13 05:48:15;;;;;;;27.13;16.95;;;;;;;;;;4996790;28;20774;-76
2022/12/13 05:50:41;;;;;;;27.07;15.97;;;;;;;;;;5005432;28;20214;-76
2022/12/13 05:53:08;;;;;;;26.17;15.00;;;;;;;;;;4990288;28;20837;-76
2022/12/13 05:55:34;;;;;;;28.50;15.20;;;;;;;;;;4970878;28;21089;-76
2022/12/13 05:58:00;;;;;;;25.93;14.50;;;;;;;;;;5003227;28;20446;-76
2022/12/13 06:00:26;;;;;;;25.50;14.87;;;;;;;;;;4996871;28;20537;-76
2022/12/13 06:02:52;;;;;;;27.13;15.50;;;;;;;;;;5005526;28;20433;-76
2022/12/13 06:05:18;;;;;;;26.13;14.03;;;;;;;;;;5005521;28;20441;-76
2022/12/13 06:07:45;;;;;;;26.67;15.13;;;;;;;;;;5010045;28;20474;-76
2022/12/13 06:10:11;;;;;;;27.67;15.23;;;;;;;;;;4998626;28;21053;-76
2022/12/13 06:12:38;;;;;;;25.48;16.27;;;;;;;;;;4997963;28;20453;-76
2022/12/13 06:15:05;;;;;;;29.27;17.00;;;;;;;;;;4999135;28;21122;-76
2022/12/13 06:17:32;;;;;;;27.33;15.33;;;;;;;;;;4980726;28;20210;-76
2022/12/13 06:19:58;;;;;;;29.77;15.57;;;;;;;;;;4998849;28;20485;-76
2022/12/13 06:22:25;;;;;;;29.10;15.37;;;;;;;;;;5001643;28;21024;-76
2022/12/13 06:24:52;;;;;;;29.77;16.70;;;;;;;;;;4999135;28;20518;-76
2022/12/13 06:27:18;;;;;;;30.43;15.67;;;;;;;;;;4994434;28;20430;-76
2022/12/13 06:29:44;;;;;;;29.33;16.05;;;;;;;;;;4998200;28;20436;-76
2022/12/13 06:32:10;;;;;;;33.87;17.57;;;;;;;;;;5001291;28;20211;-77
2022/12/13 06:34:37;;;;;;;33.00;19.02;;;;;;;;;;4996043;28;20427;-77
2022/12/13 06:37:04;;;;;;;30.30;16.70;;;;;;;;;;5000960;28;20210;-77
2022/12/13 06:39:30;;;;;;;30.00;16.47;;;;;;;;;;5003626;28;20492;-77
2022/12/13 06:41:56;;;;;;;30.70;17.33;;;;;;;;;;4999924;28;20441;-77
2022/12/13 06:44:22;;;;;;;26.93;15.37;;;;;;;;;;4990742;28;20443;-77
2022/12/13 06:46:49;;;;;;;32.50;18.03;;;;;;;;;;5002029;28;20832;-76
2022/12/13 06:49:15;;;;;;;31.52;19.63;;;;;;;;;;5003015;28;20807;-76
2022/12/13 06:51:41;;;;;;;34.37;19.43;;;;;;;;;;5002698;28;20472;-76
2022/12/13 06:54:07;;;;;;;35.50;20.80;;;;;;;;;;5000811;28;20443;-78
2022/12/13 06:56:33;;;;;;;37.17;20.90;;;;;;;;;;5003864;28;20555;-75
2022/12/13 06:58:59;;;;;;;41.53;21.33;;;;;;;;;;5001338;28;20442;-74
2022/12/13 07:01:26;;;;;;;42.23;21.93;;;;;;;;;;5000491;28;20507;-74
2022/12/13 07:03:55;;;;;;;37.27;19.60;;;;;;;;;;5000756;28;20500;-76
2022/12/13 07:06:22;;;;;;;39.67;19.47;;;;;;;;;;4999563;28;20473;-75
2022/12/13 07:08:50;;;;;;;43.10;21.50;;;;;;;;;;4999921;28;20457;-73
2022/12/13 07:11:18;;;;;;;42.80;21.77;;;;;;;;;;5000106;28;20832;-73
2022/12/13 07:13:44;;;;;;;40.37;20.93;;;;;;;;;;5003817;28;21007;-73
2022/12/13 07:16:11;;;;;;;35.87;18.70;;;;;;;;;;5008266;28;20855;-73
2022/12/13 07:18:37;;;;;;;37.33;19.27;;;;;;;;;;5007254;28;20443;-73
2022/12/13 07:21:04;;;;;;;37.47;20.40;;;;;;;;;;4987932;28;20570;-74
2022/12/13 07:23:30;;;;;;;35.63;18.20;;;;;;;;;;5005445;28;20497;-74
2022/12/13 07:25:56;;;;;;;36.13;18.60;;;;;;;;;;4986118;28;21035;-74
2022/12/13 07:28:23;;;;;;;33.63;17.87;;;;;;;;;;5002456;28;20931;-74
2022/12/13 07:30:49;;;;;;;32.30;17.03;;;;;;;;;;5004537;28;20463;-74
2022/12/13 07:33:15;;;;;;;33.17;17.50;;;;;;;;;;5000390;28;21070;-74
2022/12/13 07:35:42;;;;;;;37.93;20.10;;;;;;;;;;4994053;28;20442;-74
2022/12/13 07:38:08;;;;;;;51.13;24.77;;;;;;;;;;4998330;28;20580;-74
2022/12/13 07:40:39;;;;;;;40.70;20.90;;;;;;;;;;5000245;28;20454;-74
2022/12/13 07:43:05;;;;;;;32.40;17.93;;;;;;;;;;5004202;28;20532;-74
2022/12/13 07:45:32;;;;;;;39.10;21.63;;;;;;;;;;4999309;28;20826;-74
2022/12/13 07:47:58;;;;;;;34.43;18.90;;;;;;;;;;4997242;28;20438;-73
2022/12/13 07:50:24;;;;;;;32.63;17.03;;;;;;;;;;4999843;28;20554;-74
2022/12/13 07:52:51;;;;;;;28.07;15.93;;;;;;;;;;5000561;28;20516;-74
2022/12/13 07:55:17;;;;;;;29.07;16.57;;;;;;;;;;4998343;28;20424;-74
2022/12/13 07:57:44;;;;;;;29.30;16.53;;;;;;;;;;4995622;28;20508;-74
2022/12/13 08:00:11;;;;;;;28.53;15.43;;;;;;;;;;4994921;28;20811;-74
2022/12/13 08:02:40;;;;;;;30.00;16.40;;;;;;;;;;4998760;28;20802;-74
2022/12/13 08:05:07;;;;;;;29.73;16.50;;;;;;;;;;5001997;28;20439;-73
2022/12/13 08:07:33;;;;;;;31.33;17.03;;;;;;;;;;4999863;28;20550;-74
2022/12/13 08:09:59;;;;;;;31.37;17.63;;;;;;;;;;4999005;28;20462;-73
2022/12/13 08:12:25;;;;;;;34.90;18.90;;;;;;;;;;5002750;28;20485;-74
2022/12/13 08:14:52;;;;;;;29.87;16.57;;;;;;;;;;4999095;28;20438;-74
2022/12/13 08:17:18;;;;;;;32.07;18.03;;;;;;;;;;5007643;28;20435;-74
2022/12/13 08:19:44;;;;;;;32.43;18.50;;;;;;;;;;4999367;28;20556;-74
2022/12/13 08:22:13;;;;;;;34.70;17.97;;;;;;;;;;4998595;28;20442;-73
2022/12/13 08:24:39;;;;;;;28.40;16.57;;;;;;;;;;5008921;28;20454;-74
2022/12/13 08:27:06;;;;;;;30.17;17.20;;;;;;;;;;5001728;28;20766;-73
2022/12/13 08:29:33;;;;;;;31.07;17.77;;;;;;;;;;4999236;28;20553;-74
2022/12/13 08:31:59;;;;;;;33.63;19.00;;;;;;;;;;5001164;28;20462;-73
2022/12/13 08:34:26;;;;;;;34.70;20.10;;;;;;;;;;5008537;28;20438;-74
2022/12/13 08:36:53;;;;;;;36.73;18.87;;;;;;;;;;5003003;28;20438;-74
2022/12/13 08:39:19;;;;;;;33.30;19.23;;;;;;;;;;5012743;28;20502;-73
2022/12/13 08:41:45;;;;;;;35.73;20.50;;;;;;;;;;5007473;28;20447;-73
2022/12/13 08:44:11;;;;;;;35.33;19.93;;;;;;;;;;5008519;28;20754;-73
2022/12/13 08:46:38;;;;;;;36.47;20.50;;;;;;;;;;5005085;28;20434;-73
2022/12/13 08:49:04;;;;;;;36.57;20.07;;;;;;;;;;5003467;28;20709;-73
2022/12/13 08:51:30;;;;;;;33.67;20.10;;;;;;;;;;5005293;28;20466;-74
2022/12/13 08:53:56;;;;;;;35.50;19.77;;;;;;;;;;5003992;28;20442;-74
2022/12/13 08:56:23;;;;;;;41.30;23.60;;;;;;;;;;5003828;28;20450;-74
2022/12/13 08:58:50;;;;;;;51.80;23.90;;;;;;;;;;5010787;28;20777;-74
2022/12/13 09:01:17;;;;;;;38.23;21.03;;;;;;;;;;5006939;28;20434;-74
2022/12/13 09:03:43;;;;;;;44.57;23.90;;;;;;;;;;4999427;28;20435;-74
2022/12/13 09:06:12;;;;;;;38.33;21.30;;;;;;;;;;5001624;28;20789;-74
2022/12/13 09:08:38;;;;;;;41.37;22.33;;;;;;;;;;5004226;28;21004;-74
2022/12/13 09:11:05;;;;;;;39.07;21.20;;;;;;;;;;5003779;28;20453;-74
2022/12/13 09:13:32;;;;;;;33.43;19.13;;;;;;;;;;5003248;28;20489;-74
2022/12/13 09:15:58;;;;;;;40.23;21.77;;;;;;;;;;4999350;28;21132;-74
2022/12/13 09:18:25;;;;;;;36.13;20.83;;;;;;;;;;5005961;28;20501;-74
2022/12/13 09:20:51;;;;;;;32.97;19.73;;;;;;;;;;5003643;28;20458;-73
2022/12/13 09:23:17;;;;;;;32.73;18.40;;;;;;;;;;5006434;28;20487;-73
2022/12/13 09:25:44;;;;;;;31.43;17.97;;;;;;;;;;5004914;28;20443;-74
2022/12/13 09:28:10;;;;;;;30.47;17.50;;;;;;;;;;5003157;28;20916;-74
2022/12/13 09:30:37;;;;;;;31.73;17.27;;;;;;;;;;5009021;28;20482;-74
2022/12/13 09:33:03;;;;;;;30.27;17.07;;;;;;;;;;5009102;28;21202;-73
2022/12/13 09:35:30;;;;;;;30.47;17.63;;;;;;;;;;5006007;28;20442;-73
2022/12/13 09:37:56;;;;;;;33.87;18.77;;;;;;;;;;5002141;28;20461;-73
2022/12/13 09:40:23;;;;;;;27.50;15.37;;;;;;;;;;5005348;28;20597;-73
2022/12/13 09:42:52;;;;;;;26.43;15.23;;;;;;;;;;5008149;28;20452;-74
2022/12/13 09:45:18;;;;;;;28.60;15.70;;;;;;;;;;5005267;28;20446;-74
2022/12/13 09:47:46;;;;;;;24.60;14.47;;;;;;;;;;5005752;28;20445;-74
2022/12/13 09:50:15;;;;;;;25.67;14.90;;;;;;;;;;5005169;28;20453;-74
2022/12/13 09:52:42;;;;;;;24.53;14.30;;;;;;;;;;4998342;28;20962;-74
2022/12/13 09:55:19;;;;;;;28.23;15.37;;;;;;;;;;5003370;28;20470;-73
2022/12/13 09:57:46;;;;;;;26.80;16.47;;;;;;;;;;5005535;28;20448;-75
2022/12/13 10:00:18;;;;;;;27.20;16.27;;;;;;;;;;4998257;28;20463;-74
2022/12/13 10:02:52;;;;;;;28.43;16.80;;;;;;;;;;5006302;28;20966;-74
2022/12/13 10:05:24;;;;;;;26.63;15.27;;;;;;;;;;5007635;28;20625;-75
2022/12/13 10:07:52;;;;;;;23.67;13.97;;;;;;;;;;5008749;28;20442;-75
2022/12/13 10:10:18;;;;;;;23.13;13.90;;;;;;;;;;5010535;28;20512;-75
2022/12/13 10:12:46;;;;;;;18.40;12.40;;;;;;;;;;5013591;28;20465;-75
2022/12/13 10:15:15;;;;;;;20.07;12.07;;;;;;;;;;5003349;28;20424;-75
2022/12/13 10:17:46;;;;;;;19.40;11.57;;;;;;;;;;5005473;28;20430;-75
2022/12/13 10:20:24;;;;;;;22.37;13.43;;;;;;;;;;5011357;28;20442;-75
2022/12/13 10:22:51;;;;;;;16.37;11.00;;;;;;;;;;5007581;28;20434;-75
2022/12/13 10:25:37;;;;;;;25.00;14.27;;;;;;;;;;5016697;28;20425;-75
2022/12/13 10:28:04;;;;;;;30.37;17.87;;;;;;;;;;5005098;28;20434;-75
2022/12/13 10:30:39;;;;;;;28.90;17.63;;;;;;;;;;4988204;28;20510;-80
2022/12/13 10:33:06;;;;;;;27.87;16.90;;;;;;;;;;5004563;28;20466;-75
2022/12/13 10:35:38;;;;;;;22.43;14.17;;;;;;;;;;5009850;28;20438;-76
2022/12/13 10:38:09;;;;;;;20.53;12.73;;;;;;;;;;5014210;28;20465;-76
2022/12/13 10:40:36;;;;;;;23.77;13.70;;;;;;;;;;5010687;28;20458;-76
2022/12/13 10:43:21;;;;;;;21.87;13.10;;;;;;;;;;5013918;28;20464;-76
2022/12/13 10:45:57;;;;;;;22.10;14.47;;;;;;;;;;5009358;28;20282;-76
2022/12/13 10:48:26;;;;;;;16.50;10.07;;;;;;;;;;5007716;28;20443;-76
2022/12/13 10:50:56;;;;;;;16.47;9.30;;;;;;;;;;5007176;28;20292;-76
2022/12/13 10:53:24;;;;;;;13.73;8.50;;;;;;;;;;5002182;28;20257;-76
2022/12/13 10:55:54;;;;;;;12.93;8.60;;;;;;;;;;5002084;28;20468;-75
2022/12/13 10:58:20;;;;;;;11.23;7.60;;;;;;;;;;5005530;28;20556;-76
2022/12/13 11:00:48;;;;;;;13.00;7.97;;;;;;;;;;5008971;28;20446;-76
2022/12/13 11:03:31;;;;;;;15.47;9.03;;;;;;;;;;5002195;28;20721;-76
2022/12/13 11:06:14;;;;;;;11.73;7.90;;;;;;;;;;5000354;28;20183;-78
2022/12/13 11:08:40;;;;;;;10.30;6.70;;;;;;;;;;5001784;28;20211;-78
2022/12/13 11:11:08;;;;;;;10.43;6.77;;;;;;;;;;5008577;28;20557;-78
2022/12/13 11:13:35;;;;;;;9.80;6.67;;;;;;;;;;5003404;28;20243;-79
2022/12/13 11:16:02;;;;;;;10.00;6.47;;;;;;;;;;5001361;28;20172;-79
2022/12/13 11:18:34;;;;;;;15.23;6.37;;;;;;;;;;4997362;28;20180;-79
2022/12/13 11:21:02;;;;;;;9.73;6.80;;;;;;;;;;5010492;28;20801;-79
2022/12/13 11:23:31;;;;;;;11.10;6.20;;;;;;;;;;4987207;28;20644;-79
2022/12/13 11:25:59;;;;;;;9.97;6.33;;;;;;;;;;5009865;28;20458;-78
2022/12/13 11:28:35;;;;;;;8.33;5.80;;;;;;;;;;5003199;28;22130;-77
2022/12/13 11:31:01;;;;;;;9.23;6.17;;;;;;;;;;5007751;28;20621;-77
2022/12/13 11:33:33;;;;;;;10.60;6.90;;;;;;;;;;5006882;28;20528;-77
2022/12/13 11:36:12;;;;;;;10.10;6.77;;;;;;;;;;5001003;28;20265;-76
2022/12/13 11:38:40;;;;;;;11.70;6.57;;;;;;;;;;5001934;28;20223;-77
2022/12/13 11:41:22;;;;;;;9.17;5.87;;;;;;;;;;5006852;28;20202;-76
2022/12/13 11:43:48;;;;;;;10.17;6.23;;;;;;;;;;5005305;28;20285;-76
2022/12/13 11:46:19;;;;;;;8.73;5.50;;;;;;;;;;5012215;28;20857;-74
2022/12/13 11:48:48;;;;;;;9.80;5.90;;;;;;;;;;5002070;28;20183;-77
2022/12/13 11:51:17;;;;;;;15.63;9.80;;;;;;;;;;5003594;28;20573;-74
2022/12/13 11:53:49;;;;;;;12.77;8.60;;;;;;;;;;5001180;28;20198;-73
2022/12/13 11:56:22;;;;;;;14.77;9.17;;;;;;;;;;5005760;28;20175;-73
2022/12/13 11:58:48;;;;;;;13.57;8.50;;;;;;;;;;5002084;28;20179;-73
2022/12/13 12:01:17;;;;;;;12.17;8.07;;;;;;;;;;5002859;28;20601;-73
2022/12/13 12:03:46;;;;;;;16.00;10.13;;;;;;;;;;4996019;28;20905;-74
2022/12/13 12:06:23;;;;;;;11.40;7.27;;;;;;;;;;5000705;28;20179;-73
2022/12/13 12:09:04;;;;;;;10.50;5.97;;;;;;;;;;5006283;28;20190;-73
2022/12/13 12:11:46;;;;;;;6.53;4.37;;;;;;;;;;5002708;28;20191;-74
2022/12/13 12:14:31;;;;;;;8.30;4.83;;;;;;;;;;5003625;28;20604;-73
2022/12/13 12:16:57;;;;;;;6.40;4.70;;;;;;;;;;5006709;28;20171;-73
2022/12/13 12:19:35;;;;;;;9.60;4.63;;;;;;;;;;5002227;28;20200;-73
2022/12/13 12:22:06;;;;;;;9.37;5.20;;;;;;;;;;5001798;28;20275;-74
2022/12/13 12:24:51;;;;;;;8.37;4.90;;;;;;;;;;4999962;28;20184;-74
2022/12/13 12:27:38;;;;;;;7.37;4.60;;;;;;;;;;4998962;28;20187;-74
2022/12/13 12:30:14;;;;;;;6.47;4.60;;;;;;;;;;4986046;28;20217;-73
2022/12/13 12:32:43;;;;;;;7.13;4.40;;;;;;;;;;4999668;28;20214;-72
2022/12/13 12:35:18;;;;;;;5.83;4.30;;;;;;;;;;5003067;28;21851;-73
2022/12/13 12:37:52;;;;;;;6.23;4.17;;;;;;;;;;5000482;28;20720;-73
2022/12/13 12:40:32;;;;;;;8.83;4.47;;;;;;;;;;4996423;28;20312;-73
2022/12/13 12:43:04;;;;;;;7.80;4.20;;;;;;;;;;5001688;28;20180;-73
2022/12/13 12:45:42;;;;;;;6.50;4.00;;;;;;;;;;5001498;28;20880;-73
2022/12/13 12:48:17;;;;;;;12.53;4.10;;;;;;;;;;4993610;28;20179;-73
2022/12/13 12:50:46;;;;;;;7.47;4.30;;;;;;;;;;4998750;28;20218;-73
2022/12/13 12:53:29;;;;;;;7.90;4.20;;;;;;;;;;4996812;28;20215;-73
2022/12/13 12:56:04;;;;;;;5.93;3.87;;;;;;;;;;4996377;28;20187;-73
2022/12/13 12:58:34;;;;;;;6.03;3.70;;;;;;;;;;5002528;28;20506;-73
2022/12/13 13:01:14;;;;;;;7.13;4.10;;;;;;;;;;4998327;28;20213;-73
2022/12/13 13:03:42;;;;;;;6.87;4.07;;;;;;;;;;4997308;28;20189;-72
2022/12/13 13:06:11;;;;;;;8.87;4.33;;;;;;;;;;4995266;28;20179;-73
2022/12/13 13:08:43;;;;;;;8.27;5.23;;;;;;;;;;5002821;28;20187;-73
2022/12/13 13:11:09;;;;;;;6.03;4.03;;;;;;;;;;4999564;28;20218;-73
2022/12/13 13:13:38;;;;;;;10.43;4.50;;;;;;;;;;4999284;28;20726;-73
2022/12/13 13:16:05;;;;;;;6.43;4.13;;;;;;;;;;5001599;28;20275;-73
2022/12/13 13:18:45;;;;;;;6.57;4.60;;;;;;;;;;4997353;28;20187;-73
2022/12/13 13:21:24;;;;;;;7.97;4.73;;;;;;;;;;4997690;28;20203;-73
2022/12/13 13:24:00;;;;;;;9.30;4.80;;;;;;;;;;4997737;28;20313;-73
2022/12/13 13:26:30;;;;;;;7.53;4.43;;;;;;;;;;4993839;28;20194;-73
2022/12/13 13:29:15;;;;;;;6.13;4.37;;;;;;;;;;4988582;28;20853;-73
2022/12/13 13:31:54;;;;;;;7.00;4.27;;;;;;;;;;4991788;28;20290;-73
2022/12/13 13:34:31;;;;;;;7.23;4.60;;;;;;;;;;4994757;28;20195;-73
2022/12/13 13:36:58;;;;;;;6.63;4.63;;;;;;;;;;4994704;28;20190;-73
2022/12/13 13:39:27;;;;;;;10.93;6.07;;;;;;;;;;4997860;28;20226;-73
2022/12/13 13:42:14;;;;;;;15.07;5.53;;;;;;;;;;4996168;28;20180;-73
2022/12/13 13:44:53;;;;;;;8.37;4.50;;;;;;;;;;4971691;28;20199;-73
2022/12/13 13:47:19;;;;;;;8.30;4.50;;;;;;;;;;4996584;28;21389;-73
2022/12/13 13:49:59;;;;;;;6.80;4.40;;;;;;;;;;4995138;28;20215;-73
2022/12/13 13:52:28;;;;;;;8.50;4.70;;;;;;;;;;4993658;28;20273;-73
2022/12/13 13:55:17;;;;;;;6.03;4.33;;;;;;;;;;4993023;28;20663;-73
2022/12/13 13:57:46;;;;;;;8.17;4.60;;;;;;;;;;4996225;28;20669;-74
2022/12/13 14:00:32;;;;;;;7.13;4.50;;;;;;;;;;4990099;28;20229;-73
2022/12/13 14:03:34;;;;;;;6.33;4.10;;;;;;;;;;4994558;28;20657;-73
2022/12/13 14:06:21;;;;;;;8.63;5.30;;;;;;;;;;4973539;28;20261;-73
2022/12/13 14:09:00;;;;;;;7.70;5.17;;;;;;;;;;4995851;28;20202;-73
2022/12/13 14:11:38;;;;;;;7.03;5.03;;;;;;;;;;4999234;28;20190;-73
2022/12/13 14:14:19;;;;;;;13.20;6.77;;;;;;;;;;5002592;28;20182;-73
2022/12/13 14:16:46;;;;;;;10.17;5.40;;;;;;;;;;4993967;28;20179;-73
2022/12/13 14:19:12;;;;;;;6.63;4.90;;;;;;;;;;4999083;28;20193;-73
2022/12/13 14:21:57;;;;;;;6.37;4.80;;;;;;;;;;5000385;28;20195;-73
2022/12/13 14:24:32;;;;;;;15.53;4.90;;;;;;;;;;4996974;28;20602;-73
2022/12/13 14:27:06;;;;;;;7.67;4.80;;;;;;;;;;5005447;28;20246;-73
2022/12/13 14:29:34;;;;;;;7.77;5.17;;;;;;;;;;4996391;28;20207;-73
2022/12/13 14:32:00;;;;;;;7.03;4.83;;;;;;;;;;5000034;28;20289;-72
2022/12/13 14:34:28;;;;;;;9.53;5.33;;;;;;;;;;4996157;28;20172;-74
2022/12/13 14:36:58;;;;;;;8.67;5.10;;;;;;;;;;4996686;28;20176;-74
2022/12/13 14:39:25;;;;;;;8.67;5.30;;;;;;;;;;4998315;28;20222;-74
2022/12/13 14:41:56;;;;;;;12.00;5.00;;;;;;;;;;4998303;28;20191;-73